createdAt,value
2018-03-23T00:00:43.362Z,76.70
2018-03-23T00:03:14.266Z,79.50
2018-03-23T00:05:44.959Z,79.20
2018-03-23T00:08:16.003Z,78.60
2018-03-23T00:10:46.159Z,78.00
2018-03-23T00:13:17.088Z,77.30
2018-03-23T00:15:47.961Z,76.90
2018-03-23T00:18:19.436Z,77.70
2018-03-23T00:20:49.127Z,77.70
2018-03-23T00:23:19.547Z,78.00
2018-03-23T00:25:49.571Z,78.60
2018-03-23T00:28:19.808Z,79.40
2018-03-23T00:30:50.833Z,84.00
2018-03-23T00:33:20.987Z,84.00
2018-03-23T00:35:51.341Z,83.50
2018-03-23T00:38:21.589Z,84.40
2018-03-23T00:40:51.912Z,85.20
2018-03-23T00:43:23.453Z,86.90
2018-03-23T00:45:54.418Z,87.40
2018-03-23T00:48:25.068Z,87.40
2018-03-23T00:50:56.200Z,86.40
2018-03-23T00:53:26.694Z,87.20
2018-03-23T00:55:56.935Z,87.20
2018-03-23T00:58:26.832Z,87.50
2018-03-23T01:00:57.168Z,88.60
2018-03-23T01:03:26.963Z,88.80
2018-03-23T01:05:57.812Z,88.90
2018-03-23T01:08:27.562Z,88.80
2018-03-23T01:10:58.104Z,88.90
2018-03-23T01:13:28.342Z,88.80
2018-03-23T01:15:58.291Z,88.70
2018-03-23T01:18:28.383Z,88.60
2018-03-23T01:20:58.427Z,88.40
2018-03-23T01:23:29.265Z,88.20
2018-03-23T01:25:59.097Z,88.30
2018-03-23T01:28:29.123Z,88.20
2018-03-23T01:31:00.326Z,87.20
2018-03-23T01:33:31.416Z,87.00
2018-03-23T01:36:01.139Z,87.40
2018-03-23T01:38:30.846Z,87.20
2018-03-23T01:41:01.314Z,87.50
2018-03-23T01:43:31.046Z,87.50
2018-03-23T01:46:02.618Z,88.00
2018-03-23T01:48:33.584Z,88.20
2018-03-23T01:51:03.310Z,88.10
2018-03-23T01:53:45.141Z,88.60
2018-03-23T01:56:14.843Z,88.70
2018-03-23T01:58:44.582Z,88.50
2018-03-23T02:01:15.086Z,88.70
2018-03-23T02:03:45.306Z,88.70
2018-03-23T02:06:15.091Z,89.00
2018-03-23T02:08:44.781Z,86.20
2018-03-23T02:11:14.561Z,83.90
2018-03-23T02:13:44.303Z,82.00
2018-03-23T02:16:15.076Z,81.00
2018-03-23T02:18:45.736Z,80.90
2018-03-23T02:21:16.995Z,80.20
2018-03-23T02:23:47.866Z,80.10
2018-03-23T02:26:17.634Z,78.30
2018-03-23T02:28:48.545Z,75.90
2018-03-23T02:31:20.402Z,75.80
2018-03-23T02:33:52.116Z,74.20
2018-03-23T02:36:22.720Z,74.70
2018-03-23T02:38:53.354Z,74.50
2018-03-23T02:41:25.749Z,74.60
2018-03-23T02:43:55.501Z,74.60
2018-03-23T02:46:25.530Z,75.00
2018-03-23T02:48:55.982Z,75.40
2018-03-23T02:51:26.303Z,75.80
2018-03-23T02:53:57.640Z,77.90
2018-03-23T02:56:27.366Z,77.90
2018-03-23T02:58:58.686Z,79.10
2018-03-23T03:01:29.033Z,79.00
2018-03-23T03:03:59.520Z,79.80
2018-03-23T03:06:29.294Z,79.70
2018-03-23T03:09:00.825Z,80.40
2018-03-23T03:11:31.283Z,80.80
2018-03-23T03:14:01.460Z,80.70
2018-03-23T03:16:31.155Z,81.20
2018-03-23T03:19:01.386Z,81.00
2018-03-23T03:21:31.312Z,81.30
2018-03-23T03:24:01.477Z,81.70
2018-03-23T03:26:32.150Z,81.60
2018-03-23T03:29:02.202Z,82.60
2018-03-23T03:31:33.460Z,81.90
2018-03-23T03:34:03.798Z,81.90
2018-03-23T03:36:34.050Z,82.10
2018-03-23T03:39:04.383Z,82.20
2018-03-23T03:41:34.170Z,82.40
2018-03-23T03:44:03.893Z,82.20
2018-03-23T03:46:33.615Z,82.30
2018-03-23T03:49:03.920Z,82.50
2018-03-23T03:51:33.676Z,82.70
2018-03-23T03:54:04.877Z,82.70
2018-03-23T03:56:34.909Z,82.70
2018-03-23T03:59:04.907Z,83.20
2018-03-23T04:01:35.379Z,83.50
2018-03-23T04:04:06.386Z,83.20
2018-03-23T04:06:36.943Z,83.20
2018-03-23T04:09:07.481Z,83.50
2018-03-23T04:11:39.071Z,83.20
2018-03-23T04:14:09.425Z,83.90
2018-03-23T04:16:39.749Z,82.70
2018-03-23T04:19:10.048Z,82.70
2018-03-23T04:21:40.613Z,82.90
2018-03-23T04:24:10.375Z,82.20
2018-03-23T04:26:40.167Z,82.30
2018-03-23T04:29:11.166Z,82.70
2018-03-23T04:31:41.642Z,82.70
2018-03-23T04:34:12.804Z,82.40
2018-03-23T04:36:42.476Z,82.40
2018-03-23T04:39:13.358Z,82.40
2018-03-23T04:41:43.708Z,82.30
2018-03-23T04:44:13.420Z,82.20
2018-03-23T04:46:43.169Z,82.20
2018-03-23T04:49:15.840Z,82.20
2018-03-23T04:51:46.569Z,82.00
2018-03-23T04:54:17.214Z,82.80
2018-03-23T04:56:48.209Z,82.10
2018-03-23T04:59:19.595Z,82.00
2018-03-23T05:01:50.706Z,81.70
2018-03-23T05:04:21.790Z,81.80
2018-03-23T05:06:52.581Z,82.00
2018-03-23T05:09:23.039Z,81.90
2018-03-23T05:11:53.531Z,82.00
2018-03-23T05:14:23.556Z,82.00
2018-03-23T05:16:53.885Z,82.20
2018-03-23T05:19:24.168Z,81.60
2018-03-23T05:21:54.175Z,81.70
2018-03-23T05:24:25.476Z,81.80
2018-03-23T05:26:56.181Z,82.50
2018-03-23T05:29:28.821Z,82.40
2018-03-23T05:32:00.127Z,82.40
2018-03-23T05:34:30.353Z,80.90
2018-03-23T05:37:02.797Z,82.00
2018-03-23T05:39:32.498Z,82.00
2018-03-23T05:42:03.606Z,82.10
2018-03-23T05:44:34.250Z,81.50
2018-03-23T05:47:04.606Z,81.50
2018-03-23T05:49:34.922Z,81.30
2018-03-23T05:52:05.513Z,81.10
2018-03-23T05:54:36.320Z,81.00
2018-03-23T05:57:06.223Z,81.00
2018-03-23T05:59:36.513Z,81.30
2018-03-23T06:02:06.447Z,81.10
2018-03-23T06:04:36.874Z,80.90
2018-03-23T06:07:07.193Z,81.10
2018-03-23T06:09:37.408Z,81.00
2018-03-23T06:12:07.798Z,81.10
2018-03-23T06:14:38.852Z,80.90
2018-03-23T06:17:09.846Z,81.00
2018-03-23T06:19:39.975Z,81.00
2018-03-23T06:22:10.498Z,81.00
2018-03-23T06:24:40.237Z,80.90
2018-03-23T06:27:09.929Z,81.00
2018-03-23T06:29:40.308Z,80.90
2018-03-23T06:32:10.724Z,81.00
2018-03-23T06:34:40.445Z,81.20
2018-03-23T06:37:10.125Z,81.50
2018-03-23T06:39:41.182Z,81.30
2018-03-23T06:42:11.508Z,81.30
2018-03-23T07:04:58.622Z,81.40
2018-03-23T07:07:29.135Z,81.30
2018-03-23T07:09:58.874Z,81.30
2018-03-23T07:12:29.402Z,81.20
2018-03-23T07:14:59.174Z,81.20
2018-03-23T07:17:28.879Z,81.30
2018-03-23T07:19:59.091Z,80.90
2018-03-23T07:22:28.855Z,81.30
2018-03-23T07:24:58.694Z,81.30
2018-03-23T07:27:28.467Z,80.90
2018-03-23T07:29:58.907Z,81.30
2018-03-23T07:32:28.724Z,81.20
2018-03-23T07:34:58.881Z,80.90
2018-03-23T07:37:29.234Z,81.20
2018-03-23T07:39:59.712Z,81.10
2018-03-23T07:42:30.239Z,81.70
2018-03-23T07:44:59.959Z,81.60
2018-03-23T07:47:29.789Z,80.70
2018-03-23T07:49:59.516Z,80.90
2018-03-23T07:52:30.007Z,80.60
2018-03-23T07:57:34.949Z,80.50
2018-03-23T08:00:05.427Z,81.00
2018-03-23T08:02:36.107Z,80.70
2018-03-23T08:05:06.538Z,81.10
2018-03-23T08:07:37.025Z,80.80
2018-03-23T08:10:07.124Z,80.70
2018-03-23T08:12:38.770Z,81.80
2018-03-23T08:15:08.811Z,81.60
2018-03-23T08:17:38.512Z,82.40
2018-03-23T08:20:08.789Z,82.60
2018-03-23T08:22:38.962Z,82.20
2018-03-23T08:25:09.297Z,82.50
2018-03-23T08:27:40.518Z,82.50
2018-03-23T08:30:11.865Z,82.60
2018-03-23T08:32:41.670Z,82.20
2018-03-23T08:35:11.882Z,82.50
2018-03-23T08:37:42.141Z,82.90
2018-03-23T08:40:12.193Z,83.10
2018-03-23T08:42:42.044Z,83.30
2018-03-23T08:45:12.155Z,83.50
2018-03-23T08:47:42.251Z,83.00
2018-03-23T08:50:12.855Z,83.70
2018-03-23T08:52:43.899Z,83.50
2018-03-23T08:55:14.934Z,83.40
2018-03-23T08:57:46.893Z,83.80
2018-03-23T09:00:17.352Z,83.70
2018-03-23T09:02:47.756Z,84.30
2018-03-23T09:05:18.620Z,84.80
2018-03-23T09:07:49.295Z,84.20
2018-03-23T09:10:19.724Z,85.90
2018-03-23T09:12:49.747Z,85.00
2018-03-23T09:15:19.863Z,86.20
2018-03-23T09:17:50.132Z,86.40
2018-03-23T09:20:20.198Z,87.40
2018-03-23T09:22:50.652Z,87.80
2018-03-23T09:25:21.479Z,87.20
2018-03-23T09:27:52.680Z,87.10
2018-03-23T09:30:22.449Z,87.10
2018-03-23T10:05:25.477Z,89.10
2018-03-23T10:07:56.463Z,89.10
2018-03-23T10:10:27.466Z,88.80
2018-03-23T10:12:58.261Z,89.10
2018-03-23T10:15:29.818Z,89.70
2018-03-23T10:18:01.028Z,90.10
2018-03-23T10:20:31.969Z,89.10
2018-03-23T10:23:02.976Z,88.50
2018-03-23T10:25:33.868Z,90.00
2018-03-23T10:28:10.759Z,89.80
2018-03-23T10:30:42.565Z,89.20
2018-03-23T10:33:13.489Z,89.20
2018-03-23T10:35:45.104Z,89.90
2018-03-23T10:38:16.725Z,89.80
2018-03-23T10:40:47.740Z,89.80
2018-03-23T10:43:18.703Z,89.70
2018-03-23T10:45:49.599Z,89.70
2018-03-23T10:48:20.761Z,89.70
2018-03-23T10:50:51.856Z,89.10
2018-03-23T10:53:22.635Z,88.60
2018-03-23T10:55:53.405Z,88.50
2018-03-23T10:58:24.193Z,88.60
2018-03-23T11:00:59.951Z,88.90
2018-03-23T11:03:32.496Z,87.60
2018-03-23T11:06:04.116Z,87.20
2018-03-23T11:08:34.680Z,87.20
2018-03-23T11:11:06.326Z,87.60
2018-03-23T11:13:38.017Z,88.60
2018-03-23T11:16:08.848Z,88.50
2018-03-23T11:18:39.587Z,88.50
2018-03-23T11:21:10.398Z,87.40
2018-03-23T11:23:41.937Z,89.00
2018-03-23T11:26:13.320Z,89.00
2018-03-23T11:28:44.149Z,87.20
2018-03-23T11:31:15.650Z,87.70
2018-03-23T11:33:46.545Z,87.70
2018-03-23T11:36:17.132Z,88.10
2018-03-23T11:38:48.824Z,88.20
2018-03-23T11:41:20.459Z,87.70
2018-03-23T11:43:52.274Z,87.40
2018-03-23T11:46:23.972Z,87.00
2018-03-23T11:48:54.736Z,87.00
2018-03-23T11:51:25.215Z,87.10
2018-03-23T11:53:55.993Z,87.00
2018-03-23T11:56:27.586Z,85.70
2018-03-23T11:58:58.431Z,85.70
2018-03-23T12:01:29.179Z,83.10
2018-03-23T12:04:00.149Z,80.60
2018-03-23T12:06:32.025Z,75.80
2018-03-23T12:09:02.913Z,75.80
2018-03-23T12:11:33.853Z,73.60
2018-03-23T12:14:04.704Z,71.60
2018-03-23T12:16:35.541Z,70.90
2018-03-23T12:19:06.275Z,69.20
2018-03-23T12:21:37.167Z,67.80
2018-03-23T12:24:08.049Z,66.20
2018-03-23T12:26:38.864Z,64.90
2018-03-23T12:29:09.914Z,63.70
2018-03-23T12:31:40.802Z,64.60
2018-03-23T12:34:11.577Z,64.90
2018-03-23T12:36:43.125Z,65.40
2018-03-23T12:39:13.889Z,66.20
2018-03-23T12:41:44.863Z,66.80
2018-03-23T12:44:15.863Z,67.40
2018-03-23T12:46:47.525Z,68.70
2018-03-23T12:49:18.480Z,68.70
2018-03-23T12:51:51.262Z,70.50
2018-03-23T12:54:22.894Z,70.20
2018-03-23T12:56:53.888Z,70.20
2018-03-23T12:59:24.587Z,71.10
2018-03-23T13:01:56.224Z,72.00
2018-03-23T13:04:26.948Z,71.90
2018-03-23T13:06:57.847Z,72.90
2018-03-23T13:09:28.497Z,72.70
2018-03-23T13:11:59.269Z,73.10
2018-03-23T13:14:31.946Z,74.30
2018-03-23T13:17:02.752Z,73.80
2018-03-23T13:19:33.682Z,74.20
2018-03-23T13:22:04.596Z,74.50
2018-03-23T13:24:35.293Z,74.80
2018-03-23T13:27:06.820Z,75.40
2018-03-23T13:29:37.784Z,75.30
2018-03-23T13:32:09.365Z,75.70
2018-03-23T13:34:40.242Z,75.70
2018-03-23T13:37:12.425Z,75.80
2018-03-23T13:39:44.468Z,76.20
2018-03-23T13:42:15.136Z,76.10
2018-03-23T13:44:46.103Z,76.30
2018-03-23T13:47:17.028Z,76.40
2018-03-23T13:49:48.974Z,76.90
2018-03-23T13:52:20.765Z,76.80
2018-03-23T13:54:51.484Z,77.00
2018-03-23T13:57:23.125Z,77.30
2018-03-23T13:59:58.838Z,77.30
2018-03-23T14:02:29.720Z,77.60
2018-03-23T14:05:00.563Z,78.00
2018-03-23T14:07:32.304Z,78.60
2018-03-23T14:10:04.140Z,78.60
2018-03-23T14:12:35.048Z,79.70
2018-03-23T14:15:07.104Z,79.30
2018-03-23T14:17:38.610Z,79.50
2018-03-23T14:20:09.712Z,79.70
2018-03-23T14:22:40.972Z,80.00
2018-03-23T14:25:12.288Z,80.20
2018-03-23T14:27:43.792Z,80.80
2018-03-23T14:30:14.561Z,80.80
2018-03-23T14:32:46.140Z,81.30
2018-03-23T14:35:18.206Z,81.20
2018-03-23T14:37:49.500Z,81.80
2018-03-23T14:40:21.104Z,83.20
2018-03-23T14:42:52.048Z,84.00
2018-03-23T14:45:22.973Z,84.70
2018-03-23T14:47:55.390Z,87.10
2018-03-23T14:50:26.184Z,87.20
2018-03-23T14:52:57.011Z,87.30
2018-03-23T14:55:28.652Z,88.20
2018-03-23T14:58:00.720Z,88.20
2018-03-23T15:00:32.503Z,87.20
2018-03-23T15:03:03.449Z,87.20
2018-03-23T15:05:34.280Z,82.40
2018-03-23T15:08:05.432Z,79.70
2018-03-23T15:10:37.483Z,76.50
2018-03-23T15:13:08.397Z,74.40
2018-03-23T15:15:39.312Z,72.10
2018-03-23T15:18:10.338Z,70.40
2018-03-23T15:20:42.019Z,69.80
2018-03-23T15:23:14.215Z,68.00
2018-03-23T15:25:45.937Z,66.20
2018-03-23T15:28:22.749Z,66.20
2018-03-23T15:30:54.706Z,64.10
2018-03-23T15:33:25.790Z,64.10
2018-03-23T15:35:56.960Z,63.10
2018-03-23T15:38:28.087Z,62.40
2018-03-23T15:40:59.600Z,61.70
2018-03-23T15:43:31.152Z,61.10
2018-03-23T15:46:02.007Z,60.60
2018-03-23T15:48:32.796Z,60.20
2018-03-23T15:51:04.531Z,59.70
2018-03-23T15:53:35.308Z,59.60
2018-03-23T15:56:07.151Z,59.00
2018-03-23T15:58:38.210Z,58.90
2018-03-23T16:01:10.004Z,58.70
2018-03-23T16:03:40.813Z,58.70
2018-03-23T16:06:12.783Z,58.70
2018-03-23T16:08:44.525Z,58.70
2018-03-23T16:11:17.368Z,58.60
2018-03-23T16:13:48.272Z,58.60
2018-03-23T16:16:19.428Z,58.50
2018-03-23T16:18:50.140Z,58.30
2018-03-23T16:21:20.563Z,58.10
2018-03-23T16:23:51.472Z,58.00
2018-03-23T16:26:23.059Z,58.00
2018-03-23T16:28:54.037Z,58.00
2018-03-23T16:31:24.892Z,57.90
2018-03-23T16:33:55.845Z,57.70
2018-03-23T16:36:27.241Z,57.70
2018-03-23T16:38:58.832Z,57.70
2018-03-23T16:41:30.599Z,57.60
2018-03-23T16:44:02.318Z,57.60
2018-03-23T16:46:33.331Z,57.40
2018-03-23T16:49:04.196Z,59.10
2018-03-23T16:51:35.352Z,62.70
2018-03-23T16:54:06.508Z,63.70
2018-03-23T16:56:37.353Z,62.60
2018-03-23T16:59:08.083Z,61.90
2018-03-23T17:01:39.129Z,61.30
2018-03-23T17:04:11.196Z,67.70
2018-03-23T17:06:42.045Z,67.60
2018-03-23T17:09:13.815Z,67.10
2018-03-23T17:11:44.820Z,67.10
2018-03-23T17:14:17.441Z,64.50
2018-03-23T17:16:48.381Z,64.40
2018-03-23T17:19:19.244Z,65.20
2018-03-23T17:21:50.347Z,68.60
2018-03-23T17:24:22.869Z,69.40
2018-03-23T17:26:53.362Z,69.40
2018-03-23T17:29:24.706Z,67.30
2018-03-23T17:31:55.482Z,66.00
2018-03-23T17:34:26.477Z,64.70
2018-03-23T17:36:57.209Z,63.70
2018-03-23T17:39:28.896Z,69.50
2018-03-23T17:41:59.338Z,69.50
2018-03-23T17:44:30.099Z,70.00
2018-03-23T17:47:01.107Z,67.70
2018-03-23T17:49:31.960Z,66.40
2018-03-23T17:52:03.260Z,65.00
2018-03-23T17:54:34.705Z,68.30
2018-03-23T17:57:06.203Z,72.10
2018-03-23T17:59:37.095Z,72.10
2018-03-23T18:02:08.664Z,69.10
2018-03-23T18:04:39.140Z,69.10
2018-03-23T18:07:09.581Z,72.10
2018-03-23T18:09:40.876Z,73.30
2018-03-23T18:12:11.466Z,73.20
2018-03-23T18:14:42.840Z,68.90
2018-03-23T18:17:13.346Z,68.90
2018-03-23T18:19:44.947Z,74.20
2018-03-23T18:22:16.035Z,74.30
2018-03-23T18:24:47.188Z,74.80
2018-03-23T18:27:18.436Z,70.10
2018-03-23T18:29:49.992Z,72.70
2018-03-23T18:32:21.729Z,74.00
2018-03-23T18:34:53.317Z,75.50
2018-03-23T18:37:24.394Z,75.40
2018-03-23T18:39:55.793Z,72.40
2018-03-23T18:42:26.849Z,70.80
2018-03-23T18:44:59.241Z,71.40
2018-03-23T18:47:30.246Z,74.30
2018-03-23T18:50:01.640Z,73.70
2018-03-23T18:52:32.790Z,73.70
2018-03-23T18:55:03.709Z,71.50
2018-03-23T18:57:34.380Z,72.10
2018-03-23T19:00:05.249Z,75.20
2018-03-23T19:02:36.104Z,76.40
2018-03-23T19:05:06.755Z,74.40
2018-03-23T19:07:37.543Z,72.20
2018-03-23T19:10:14.244Z,76.40
2018-03-23T19:12:45.198Z,76.30
2018-03-23T19:15:15.764Z,77.10
2018-03-23T19:17:46.698Z,74.40
2018-03-23T19:20:17.476Z,72.30
2018-03-23T19:22:48.079Z,72.80
2018-03-23T19:25:18.937Z,75.80
2018-03-23T19:27:50.859Z,75.30
2018-03-23T19:30:22.346Z,75.20
2018-03-23T19:32:53.927Z,72.50
2018-03-23T19:35:24.724Z,72.60
2018-03-23T19:37:56.360Z,76.80
2018-03-23T19:40:27.216Z,77.50
2018-03-23T19:42:58.884Z,73.00
2018-03-23T19:45:30.619Z,73.50
2018-03-23T19:48:01.611Z,73.40
2018-03-23T19:50:33.100Z,76.20
2018-03-23T19:53:04.220Z,77.80
2018-03-23T19:55:34.678Z,75.60
2018-03-23T19:58:05.655Z,73.00
2018-03-23T20:00:36.138Z,76.00
2018-03-23T20:03:06.938Z,77.60
2018-03-23T20:05:37.397Z,78.60
2018-03-23T20:08:08.234Z,75.10
2018-03-23T20:10:38.996Z,73.30
2018-03-23T20:13:10.412Z,77.80
2018-03-23T20:15:41.208Z,77.70
2018-03-23T20:18:17.002Z,78.80
2018-03-23T20:20:52.900Z,75.40
2018-03-23T20:23:24.746Z,76.80
2018-03-23T20:25:57.209Z,78.40
2018-03-23T20:28:35.499Z,78.10
2018-03-23T20:31:07.089Z,77.90
2018-03-23T20:33:38.814Z,75.20
2018-03-23T20:36:09.789Z,75.10
2018-03-23T20:38:41.268Z,78.80
2018-03-23T20:41:12.123Z,78.70
2018-03-23T20:43:43.136Z,77.10
2018-03-23T20:46:13.767Z,74.40
2018-03-23T20:48:45.134Z,75.20
2018-03-23T20:51:16.046Z,77.70
2018-03-23T20:53:46.869Z,78.90
2018-03-23T20:56:19.427Z,75.20
2018-03-23T20:58:50.723Z,74.50
2018-03-23T21:01:21.431Z,76.70
2018-03-23T21:03:52.923Z,79.50
2018-03-23T21:06:24.592Z,76.30
2018-03-23T21:08:55.552Z,76.30
2018-03-23T21:11:26.457Z,75.10
2018-03-23T21:13:57.611Z,77.80
2018-03-23T21:16:28.495Z,79.40
2018-03-23T21:19:00.823Z,75.60
2018-03-23T21:21:31.558Z,75.60
2018-03-23T21:24:02.146Z,78.20
2018-03-23T21:26:33.679Z,79.50
2018-03-23T21:29:05.085Z,77.20
2018-03-23T21:31:35.647Z,77.10
2018-03-23T21:34:06.281Z,77.20
2018-03-23T21:36:37.288Z,79.50
2018-03-23T21:39:08.084Z,81.00
2018-03-23T21:41:38.896Z,78.90
2018-03-23T21:44:10.717Z,79.80
2018-03-23T21:46:41.704Z,79.00
2018-03-23T21:49:14.447Z,80.70
2018-03-23T21:51:45.540Z,80.60
2018-03-23T21:54:16.060Z,77.10
2018-03-23T21:56:47.726Z,79.20
2018-03-23T21:59:18.563Z,79.10
2018-03-23T22:01:49.435Z,80.50
2018-03-23T22:04:21.000Z,79.10
2018-03-23T22:06:52.045Z,76.50
2018-03-23T22:09:25.144Z,80.10
2018-03-23T22:11:56.657Z,80.00
2018-03-23T22:14:27.138Z,81.30
2018-03-23T22:16:58.920Z,77.40
2018-03-23T22:19:30.371Z,80.10
2018-03-23T22:22:01.268Z,80.00
2018-03-23T22:24:31.943Z,81.20
2018-03-23T22:27:02.879Z,79.80
2018-03-23T22:29:33.711Z,76.80
2018-03-23T22:32:04.281Z,80.00
2018-03-23T22:34:35.155Z,81.50
2018-03-23T22:37:07.369Z,79.80
2018-03-23T22:39:38.360Z,79.70
2018-03-23T22:42:09.794Z,75.90
2018-03-23T22:44:40.556Z,75.40
2018-03-23T22:47:12.140Z,79.80
2018-03-23T22:49:43.436Z,79.80
2018-03-23T22:52:14.469Z,81.30
2018-03-23T22:54:45.274Z,82.50
2018-03-23T22:57:16.181Z,83.60
2018-03-23T22:59:47.711Z,82.10
2018-03-23T23:02:18.961Z,82.10
2018-03-23T23:04:50.290Z,85.20
2018-03-23T23:07:21.085Z,86.20
2018-03-23T23:09:51.582Z,83.90
2018-03-23T23:12:23.248Z,87.30
2018-03-23T23:14:55.022Z,86.30
2018-03-23T23:17:26.003Z,86.20
2018-03-23T23:19:57.679Z,85.00
2018-03-23T23:22:28.459Z,86.90
2018-03-23T23:24:59.316Z,87.90
2018-03-23T23:27:30.271Z,85.10
2018-03-23T23:30:01.137Z,86.60
2018-03-23T23:32:32.555Z,86.20
2018-03-23T23:35:03.169Z,85.60
2018-03-23T23:37:33.988Z,85.10
2018-03-23T23:40:04.742Z,84.30
2018-03-23T23:42:35.343Z,84.10
2018-03-23T23:45:05.772Z,84.70
2018-03-23T23:47:36.504Z,84.90
2018-03-23T23:50:06.945Z,85.50
2018-03-23T23:52:37.928Z,85.60
2018-03-23T23:55:08.712Z,85.50
2018-03-23T23:57:39.434Z,86.30
